Time;durP1;ratioP1;P1;durP2;ratioP2;P2;SDS_P1;SDS_P2;PMS_P1;PMS_P2;Temp;Humidity;BMP_temperature;BMP_pressure;BME280_temperature;BME280_humidity;BME280_pressure;Samples;Min_cycle;Max_cycle;Signal;HPM_P1;HPM_P2
2022/10/30 00:00:17;;;;;;;;;;;19.20;99.90;;;;;;5090995;28;19961;-26
2022/10/30 00:02:45;;;;;;;;;;;19.20;99.90;;;;;;5090457;28;19958;-27
2022/10/30 00:05:10;;;;;;;;;;;19.20;99.90;;;;;;5090959;28;19987;-26
2022/10/30 00:07:36;;;;;;;;;;;19.20;99.90;;;;;;5090864;28;19996;-26
2022/10/30 00:10:01;;;;;;;;;;;19.20;99.90;;;;;;5092555;28;19914;-27
2022/10/30 00:12:27;;;;;;;;;;;19.20;99.90;;;;;;5094660;28;20284;-27
2022/10/30 00:14:52;;;;;;;;;;;19.20;99.90;;;;;;5094940;28;19940;-26
2022/10/30 00:17:18;;;;;;;;;;;19.20;99.90;;;;;;5094757;28;19912;-27
2022/10/30 00:19:43;;;;;;;;;;;19.20;99.90;;;;;;5095031;28;20416;-27
2022/10/30 00:22:09;;;;;;;;;;;19.20;99.90;;;;;;5094727;28;19912;-26
2022/10/30 00:24:34;;;;;;;;;;;19.20;99.90;;;;;;5094661;28;19912;-26
2022/10/30 00:27:00;;;;;;;;;;;19.20;99.90;;;;;;5094674;28;19912;-27
2022/10/30 00:29:25;;;;;;;;;;;19.20;99.90;;;;;;5093246;28;20003;-26
2022/10/30 00:31:51;;;;;;;;;;;19.20;99.90;;;;;;5094600;28;19912;-27
2022/10/30 00:34:17;;;;;;;;;;;19.20;99.90;;;;;;5094190;28;19934;-27
2022/10/30 00:36:43;;;;;;;;;;;19.20;99.90;;;;;;5094525;28;20436;-27
2022/10/30 00:39:08;;;;;;;;;;;19.20;99.90;;;;;;5094525;28;20284;-27
2022/10/30 00:41:34;;;;;;;;;;;19.20;99.90;;;;;;5094414;28;19916;-26
2022/10/30 00:43:59;;;;;;;;;;;19.20;99.90;;;;;;5093882;28;19964;-27
2022/10/30 00:46:29;;;;;;;;;;;19.20;99.90;;;;;;5094179;28;19915;-27
2022/10/30 00:49:14;;;;;;;;;;;19.20;99.90;;;;;;5094571;28;20080;-27
2022/10/30 00:51:41;;;;;;;;;;;19.20;99.90;;;;;;5094256;28;19912;-26
2022/10/30 00:54:07;;;;;;;;;;;19.10;99.90;;;;;;5093934;28;20334;-26
2022/10/30 00:56:34;;;;;;;;;;;19.20;99.90;;;;;;5094187;28;19908;-26
2022/10/30 00:59:01;;;;;;;;;;;19.10;99.90;;;;;;5093895;28;19965;-26
2022/10/30 01:01:28;;;;;;;;;;;19.10;99.90;;;;;;5093944;28;19918;-26
2022/10/30 01:03:56;;;;;;;;;;;19.20;99.90;;;;;;5093645;28;19908;-26
2022/10/30 01:06:22;;;;;;;;;;;19.10;99.90;;;;;;5093944;28;20010;-26
2022/10/30 01:08:48;;;;;;;;;;;19.10;99.90;;;;;;5093850;28;19994;-26
2022/10/30 01:11:14;;;;;;;;;;;19.20;99.90;;;;;;5093832;28;20377;-26
2022/10/30 01:13:40;;;;;;;;;;;19.10;99.90;;;;;;5093362;28;19908;-26
2022/10/30 01:16:16;;;;;;;;;;;19.10;99.90;;;;;;5093743;28;19908;-26
2022/10/30 01:18:48;;;;;;;;;;;19.10;99.90;;;;;;5093641;28;19909;-26
2022/10/30 01:21:24;;;;;;;;;;;19.10;99.90;;;;;;5092870;28;19924;-27
2022/10/30 01:23:50;;;;;;;;;;;19.10;99.90;;;;;;5093183;28;19947;-27
2022/10/30 01:26:25;;;;;;;;;;;19.10;99.90;;;;;;5093442;28;20401;-26
2022/10/30 01:28:56;;;;;;;;;;;19.10;99.90;;;;;;5093510;28;19915;-26
2022/10/30 01:31:28;;;;;;;;;;;19.10;99.90;;;;;;5093517;28;19908;-26
2022/10/30 01:33:56;;;;;;;;;;;19.10;99.90;;;;;;5092990;28;19908;-26
2022/10/30 01:36:30;;;;;;;;;;;19.10;99.90;;;;;;5115390;22;19918;-24
2022/10/30 01:38:58;;;;;;;;;;;19.10;99.90;;;;;;5053307;28;19920;-23
2022/10/30 01:41:23;;;;;;;;;;;19.10;99.90;;;;;;5053248;28;20369;-23
2022/10/30 01:43:51;;;;;;;;;;;19.10;99.90;;;;;;5053165;28;20016;-23
2022/10/30 01:46:29;;;;;;;;;;;19.10;99.90;;;;;;5053157;28;19963;-24
2022/10/30 01:49:01;;;;;;;;;;;19.00;99.90;;;;;;5052831;28;19917;-24
2022/10/30 01:51:32;;;;;;;;;;;19.10;99.90;;;;;;5053129;28;19909;-24
2022/10/30 01:54:02;;;;;;;;;;;19.00;99.90;;;;;;5052516;28;19909;-24
2022/10/30 01:56:54;;;;;;;;;;;19.00;99.90;;;;;;5052798;28;19909;-23
2022/10/30 01:59:25;;;;;;;;;;;19.10;99.90;;;;;;5052834;28;19908;-23
2022/10/30 02:01:51;;;;;;;;;;;19.10;99.90;;;;;;5052981;28;20304;-24
2022/10/30 02:04:16;;;;;;;;;;;19.00;99.90;;;;;;5052316;28;19916;-23
2022/10/30 02:06:42;;;;;;;;;;;19.00;99.90;;;;;;5053359;28;19920;-24
2022/10/30 02:09:07;;;;;;;;;;;19.00;99.90;;;;;;5052950;28;20007;-24
2022/10/30 02:11:34;;;;;;;;;;;19.00;99.90;;;;;;5052759;28;19908;-24
2022/10/30 02:14:00;;;;;;;;;;;19.00;99.90;;;;;;5052013;28;19909;-24
2022/10/30 02:16:26;;;;;;;;;;;19.00;99.90;;;;;;5052358;28;20270;-24
2022/10/30 02:18:51;;;;;;;;;;;19.00;99.90;;;;;;5052379;28;19924;-23
2022/10/30 02:21:17;;;;;;;;;;;19.00;99.90;;;;;;5052584;28;19913;-24
2022/10/30 02:23:43;;;;;;;;;;;19.00;99.90;;;;;;5051936;28;20353;-23
2022/10/30 02:26:08;;;;;;;;;;;19.00;99.90;;;;;;5052303;28;20000;-24
2022/10/30 02:28:34;;;;;;;;;;;19.00;99.90;;;;;;5052035;28;19916;-24
2022/10/30 02:30:59;;;;;;;;;;;19.00;99.90;;;;;;5052187;28;19913;-24
2022/10/30 02:33:25;;;;;;;;;;;19.00;99.90;;;;;;5050681;28;19912;-24
2022/10/30 02:35:50;;;;;;;;;;;19.00;99.90;;;;;;5052374;28;19909;-24
2022/10/30 02:38:16;;;;;;;;;;;19.00;99.90;;;;;;5051853;28;19917;-23
2022/10/30 02:40:41;;;;;;;;;;;19.00;99.90;;;;;;5052001;28;19912;-23
2022/10/30 02:43:07;;;;;;;;;;;19.00;99.90;;;;;;5051586;28;19958;-24
2022/10/30 02:45:32;;;;;;;;;;;19.00;99.90;;;;;;5051850;28;20529;-23
2022/10/30 02:47:58;;;;;;;;;;;18.90;99.90;;;;;;5051743;28;19956;-23
2022/10/30 02:50:24;;;;;;;;;;;19.00;99.90;;;;;;5051952;28;19920;-24
2022/10/30 02:52:49;;;;;;;;;;;19.00;99.90;;;;;;5051644;28;19909;-23
2022/10/30 02:55:15;;;;;;;;;;;19.00;99.90;;;;;;5051861;28;19913;-24
2022/10/30 02:57:41;;;;;;;;;;;19.00;99.90;;;;;;5051561;28;19908;-23
2022/10/30 03:00:06;;;;;;;;;;;19.00;99.90;;;;;;5051585;28;19972;-24
2022/10/30 03:02:32;;;;;;;;;;;19.00;99.90;;;;;;5051216;28;20007;-24
2022/10/30 03:04:57;;;;;;;;;;;19.00;99.90;;;;;;5051571;28;19915;-23
2022/10/30 03:07:23;;;;;;;;;;;18.90;99.90;;;;;;5051474;28;20234;-24
2022/10/30 03:09:48;;;;;;;;;;;18.90;99.90;;;;;;5051568;28;19915;-24
2022/10/30 03:12:14;;;;;;;;;;;18.90;99.90;;;;;;5051266;28;19959;-24
2022/10/30 03:14:39;;;;;;;;;;;19.00;99.90;;;;;;5051102;28;20369;-24
2022/10/30 03:17:05;;;;;;;;;;;19.00;99.90;;;;;;5051304;28;20011;-24
2022/10/30 03:19:30;;;;;;;;;;;19.00;99.90;;;;;;5051655;28;19944;-24
2022/10/30 03:21:56;;;;;;;;;;;18.90;99.90;;;;;;5051489;28;20284;-23
2022/10/30 03:24:21;;;;;;;;;;;18.90;99.90;;;;;;5050972;28;19911;-24
2022/10/30 03:26:47;;;;;;;;;;;19.00;99.90;;;;;;5051122;28;20281;-24
2022/10/30 03:29:12;;;;;;;;;;;18.90;99.90;;;;;;5051191;28;19908;-23
2022/10/30 03:31:38;;;;;;;;;;;18.90;99.90;;;;;;5051123;28;19908;-23
2022/10/30 03:34:03;;;;;;;;;;;18.90;99.90;;;;;;5050870;28;19947;-24
2022/10/30 03:36:29;;;;;;;;;;;18.90;99.90;;;;;;5050992;28;19963;-24
2022/10/30 03:38:55;;;;;;;;;;;18.90;99.90;;;;;;5051193;28;19929;-24
2022/10/30 03:41:20;;;;;;;;;;;18.90;99.90;;;;;;5050939;28;20254;-24
2022/10/30 03:43:46;;;;;;;;;;;18.90;99.90;;;;;;5050596;28;19920;-24
2022/10/30 03:46:12;;;;;;;;;;;18.80;99.90;;;;;;5057590;28;19954;-24
2022/10/30 03:48:37;;;;;;;;;;;18.80;99.90;;;;;;5057548;28;19909;-24
2022/10/30 03:51:03;;;;;;;;;;;18.80;99.90;;;;;;5057820;28;20305;-24
2022/10/30 03:53:29;;;;;;;;;;;18.90;99.90;;;;;;5057151;28;19908;-23
2022/10/30 03:55:58;;;;;;;;;;;18.80;99.90;;;;;;5057641;28;19961;-23
2022/10/30 03:58:25;;;;;;;;;;;18.80;99.90;;;;;;5057395;28;19993;-24
2022/10/30 04:00:50;;;;;;;;;;;18.80;99.90;;;;;;5057528;28;19913;-23
2022/10/30 04:03:16;;;;;;;;;;;18.90;99.90;;;;;;5057150;28;19920;-24
2022/10/30 04:05:41;;;;;;;;;;;18.80;99.90;;;;;;5057611;28;19917;-23
2022/10/30 04:08:10;;;;;;;;;;;18.80;99.90;;;;;;5057423;28;19988;-23
2022/10/30 04:10:35;;;;;;;;;;;18.80;99.90;;;;;;5057962;28;19912;-24
2022/10/30 04:13:05;;;;;;;;;;;18.80;99.90;;;;;;5056965;28;19962;-24
2022/10/30 04:15:31;;;;;;;;;;;18.80;99.90;;;;;;5057371;28;19909;-24
2022/10/30 04:17:57;;;;;;;;;;;18.80;99.90;;;;;;5057326;28;20015;-23
2022/10/30 04:20:23;;;;;;;;;;;18.80;99.90;;;;;;5057336;28;20019;-23
2022/10/30 04:22:54;;;;;;;;;;;18.80;99.90;;;;;;5057229;28;19920;-24
2022/10/30 04:25:20;;;;;;;;;;;18.80;99.90;;;;;;5057356;28;19908;-23
2022/10/30 04:27:45;;;;;;;;;;;18.80;99.90;;;;;;5057221;28;19916;-23
2022/10/30 04:30:11;;;;;;;;;;;18.80;99.90;;;;;;5057490;28;19931;-24
2022/10/30 04:32:46;;;;;;;;;;;18.80;99.90;;;;;;5056952;28;19962;-24
2022/10/30 04:35:12;;;;;;;;;;;18.70;99.90;;;;;;5057328;28;20441;-24
2022/10/30 04:37:38;;;;;;;;;;;18.80;99.90;;;;;;5056935;28;19917;-24
2022/10/30 04:40:04;;;;;;;;;;;18.80;99.90;;;;;;5055737;28;19962;-23
2022/10/30 04:42:29;;;;;;;;;;;18.80;99.90;;;;;;5056798;28;20389;-23
2022/10/30 04:44:55;;;;;;;;;;;18.80;99.90;;;;;;5057225;28;19916;-23
2022/10/30 04:47:20;;;;;;;;;;;18.80;99.90;;;;;;5057220;28;19909;-23
2022/10/30 04:49:46;;;;;;;;;;;18.80;99.90;;;;;;5057346;28;20400;-23
2022/10/30 04:52:11;;;;;;;;;;;18.80;99.90;;;;;;5056953;28;19909;-23
2022/10/30 04:54:37;;;;;;;;;;;18.70;99.90;;;;;;5056664;28;19920;-24
2022/10/30 04:57:02;;;;;;;;;;;18.70;99.90;;;;;;5053699;28;20030;-23
2022/10/30 04:59:28;;;;;;;;;;;18.70;99.90;;;;;;5053730;28;20442;-23
2022/10/30 05:01:53;;;;;;;;;;;18.70;99.90;;;;;;5053889;28;19980;-23
2022/10/30 05:04:19;;;;;;;;;;;18.70;99.90;;;;;;5053405;28;19938;-23
2022/10/30 05:06:44;;;;;;;;;;;18.70;99.90;;;;;;5054496;28;19988;-23
2022/10/30 05:09:10;;;;;;;;;;;18.70;99.90;;;;;;5056859;28;19913;-23
2022/10/30 05:11:35;;;;;;;;;;;18.70;99.90;;;;;;5056849;28;19916;-23
2022/10/30 05:14:01;;;;;;;;;;;18.70;99.90;;;;;;5053398;28;19952;-24
2022/10/30 05:16:26;;;;;;;;;;;18.70;99.90;;;;;;5053687;28;20344;-23
2022/10/30 05:18:52;;;;;;;;;;;18.70;99.90;;;;;;5053507;28;20376;-24
2022/10/30 05:21:17;;;;;;;;;;;18.70;99.90;;;;;;5053591;28;19913;-23
2022/10/30 05:23:43;;;;;;;;;;;18.70;99.90;;;;;;5053136;28;20008;-23
2022/10/30 05:26:08;;;;;;;;;;;18.70;99.90;;;;;;5053436;28;19913;-23
2022/10/30 05:28:34;;;;;;;;;;;18.70;99.90;;;;;;5053206;28;19908;-24
2022/10/30 05:30:59;;;;;;;;;;;18.70;99.90;;;;;;5053495;28;19909;-23
2022/10/30 05:33:25;;;;;;;;;;;18.70;99.90;;;;;;5052922;28;19971;-23
2022/10/30 05:35:50;;;;;;;;;;;18.70;99.90;;;;;;5053199;28;19909;-23
2022/10/30 05:38:16;;;;;;;;;;;18.60;99.90;;;;;;5052997;28;19917;-23
2022/10/30 05:40:44;;;;;;;;;;;18.60;99.90;;;;;;5053066;28;20381;-23
2022/10/30 05:43:10;;;;;;;;;;;18.70;99.90;;;;;;5052602;28;19920;-24
2022/10/30 05:45:35;;;;;;;;;;;18.70;99.90;;;;;;5053188;28;19912;-24
2022/10/30 05:48:02;;;;;;;;;;;18.60;99.90;;;;;;5053288;28;19913;-23
2022/10/30 05:50:28;;;;;;;;;;;18.60;99.90;;;;;;5052994;28;20067;-24
2022/10/30 05:52:54;;;;;;;;;;;18.60;99.90;;;;;;5053056;28;19959;-23
2022/10/30 05:55:19;;;;;;;;;;;18.60;99.90;;;;;;5053305;28;19917;-23
2022/10/30 05:57:45;;;;;;;;;;;18.60;99.90;;;;;;5052790;28;20366;-23
2022/10/30 06:00:11;;;;;;;;;;;18.60;99.90;;;;;;5052805;28;20266;-23
2022/10/30 06:02:36;;;;;;;;;;;18.60;99.90;;;;;;5052327;28;20270;-23
2022/10/30 06:05:02;;;;;;;;;;;18.60;99.90;;;;;;5053153;28;19915;-23
2022/10/30 06:07:27;;;;;;;;;;;18.60;99.90;;;;;;5052205;28;19913;-23
2022/10/30 06:09:53;;;;;;;;;;;18.60;99.90;;;;;;5052539;28;20007;-23
2022/10/30 06:12:18;;;;;;;;;;;18.60;99.90;;;;;;5052511;28;19912;-23
2022/10/30 06:14:44;;;;;;;;;;;18.60;99.90;;;;;;5052062;28;20293;-23
2022/10/30 06:17:09;;;;;;;;;;;18.60;99.90;;;;;;5052429;28;19913;-24
2022/10/30 06:19:35;;;;;;;;;;;18.60;99.90;;;;;;5052857;28;20007;-23
2022/10/30 06:22:00;;;;;;;;;;;18.60;99.90;;;;;;5052150;28;19962;-23
2022/10/30 06:24:26;;;;;;;;;;;18.60;99.90;;;;;;5052395;28;19909;-23
2022/10/30 06:26:51;;;;;;;;;;;18.60;99.90;;;;;;5052383;28;20282;-23
2022/10/30 06:29:17;;;;;;;;;;;18.50;99.90;;;;;;5052157;28;19962;-24
2022/10/30 06:31:42;;;;;;;;;;;18.50;99.90;;;;;;5052312;28;19940;-24
2022/10/30 06:34:08;;;;;;;;;;;18.50;99.90;;;;;;5052363;28;19916;-23
2022/10/30 06:36:33;;;;;;;;;;;18.50;99.90;;;;;;5051866;28;20293;-24
2022/10/30 06:38:59;;;;;;;;;;;18.50;99.90;;;;;;5052329;28;19913;-24
2022/10/30 06:41:24;;;;;;;;;;;18.50;99.90;;;;;;5052042;28;19913;-23
2022/10/30 06:43:49;;;;;;;;;;;18.50;99.90;;;;;;5052560;28;19909;-23
2022/10/30 06:46:15;;;;;;;;;;;18.50;99.90;;;;;;5052574;28;19919;-23
2022/10/30 06:48:40;;;;;;;;;;;18.50;99.90;;;;;;5052616;28;20332;-23
2022/10/30 06:51:06;;;;;;;;;;;18.50;99.90;;;;;;5051730;28;19958;-23
2022/10/30 06:53:31;;;;;;;;;;;18.50;99.90;;;;;;5051554;28;19977;-24
2022/10/30 06:55:58;;;;;;;;;;;18.50;99.90;;;;;;5051753;28;19912;-23
2022/10/30 06:58:23;;;;;;;;;;;18.50;99.90;;;;;;5051914;28;20191;-23
2022/10/30 07:00:49;;;;;;;;;;;18.50;99.90;;;;;;5052255;28;20007;-24
2022/10/30 07:03:14;;;;;;;;;;;18.50;99.90;;;;;;5051711;28;19909;-24
2022/10/30 07:05:40;;;;;;;;;;;18.50;99.90;;;;;;5052553;28;19962;-23
2022/10/30 07:08:05;;;;;;;;;;;18.50;99.90;;;;;;5051474;28;20339;-24
2022/10/30 07:10:31;;;;;;;;;;;18.50;99.90;;;;;;5052311;28;19909;-23
2022/10/30 07:12:57;;;;;;;;;;;18.50;99.90;;;;;;5051497;28;19912;-23
2022/10/30 07:15:24;;;;;;;;;;;18.50;99.90;;;;;;5051966;28;19923;-23
2022/10/30 07:17:52;;;;;;;;;;;18.50;99.90;;;;;;5051852;28;19913;-24
2022/10/30 07:20:18;;;;;;;;;;;18.40;99.90;;;;;;5050881;28;19940;-23
2022/10/30 07:22:44;;;;;;;;;;;18.40;99.90;;;;;;5051095;28;20010;-23
2022/10/30 07:25:09;;;;;;;;;;;18.40;99.90;;;;;;5051753;28;19908;-23
2022/10/30 07:27:42;;;;;;;;;;;18.40;99.90;;;;;;5049883;28;19913;-23
2022/10/30 07:30:08;;;;;;;;;;;18.40;99.90;;;;;;5051443;28;19909;-23
2022/10/30 07:32:33;;;;;;;;;;;18.40;99.90;;;;;;5051348;28;20702;-23
2022/10/30 07:34:59;;;;;;;;;;;18.40;99.90;;;;;;5051256;28;19974;-23
2022/10/30 07:37:24;;;;;;;;;;;18.40;99.90;;;;;;5051595;28;19939;-23
2022/10/30 07:39:50;;;;;;;;;;;18.50;99.90;;;;;;5052367;28;19951;-23
2022/10/30 07:42:15;;;;;;;;;;;18.50;99.90;;;;;;5049897;28;20392;-23
2022/10/30 07:44:41;;;;;;;;;;;18.50;99.90;;;;;;5050613;28;19908;-23
2022/10/30 07:47:06;;;;;;;;;;;18.50;99.90;;;;;;5051167;28;19908;-23
2022/10/30 07:49:32;;;;;;;;;;;18.50;99.90;;;;;;5051684;28;19920;-23
2022/10/30 07:51:57;;;;;;;;;;;18.50;99.90;;;;;;5051187;28;20275;-23
2022/10/30 07:54:23;;;;;;;;;;;18.50;99.90;;;;;;5051064;28;19913;-23
2022/10/30 07:56:48;;;;;;;;;;;18.50;99.90;;;;;;5051029;28;20003;-23
2022/10/30 07:59:14;;;;;;;;;;;18.50;99.90;;;;;;5050867;28;20285;-23
2022/10/30 08:01:39;;;;;;;;;;;18.60;99.90;;;;;;5051137;28;20370;-23
2022/10/30 08:04:05;;;;;;;;;;;18.50;99.90;;;;;;5050967;28;19924;-23
2022/10/30 08:06:30;;;;;;;;;;;18.60;99.90;;;;;;5051134;28;19995;-23
2022/10/30 08:08:56;;;;;;;;;;;18.60;99.90;;;;;;5051064;28;19912;-23
2022/10/30 08:11:21;;;;;;;;;;;18.70;99.90;;;;;;5051165;28;20381;-23
2022/10/30 08:13:47;;;;;;;;;;;18.70;99.90;;;;;;5050514;28;19962;-23
2022/10/30 08:16:13;;;;;;;;;;;18.80;99.90;;;;;;5051747;28;19913;-23
2022/10/30 08:18:41;;;;;;;;;;;18.80;99.90;;;;;;5051492;28;20389;-23
2022/10/30 08:21:06;;;;;;;;;;;18.80;99.90;;;;;;5050931;28;20018;-23
2022/10/30 08:23:32;;;;;;;;;;;18.90;99.90;;;;;;5050454;28;20370;-23
2022/10/30 08:26:00;;;;;;;;;;;19.00;99.90;;;;;;5051221;28;19947;-23
2022/10/30 08:28:26;;;;;;;;;;;19.00;99.90;;;;;;5049759;28;19996;-23
2022/10/30 08:30:52;;;;;;;;;;;19.00;99.90;;;;;;5051411;28;20436;-23
2022/10/30 08:33:17;;;;;;;;;;;19.00;99.90;;;;;;5054132;28;20382;-23
2022/10/30 08:35:49;;;;;;;;;;;19.00;99.90;;;;;;5055136;28;19909;-23
2022/10/30 08:38:15;;;;;;;;;;;19.10;99.90;;;;;;5055052;28;19917;-23
2022/10/30 08:40:40;;;;;;;;;;;19.10;99.90;;;;;;5055304;28;19912;-23
2022/10/30 08:43:07;;;;;;;;;;;19.10;99.90;;;;;;5054295;28;19912;-23
2022/10/30 08:45:32;;;;;;;;;;;19.20;99.90;;;;;;5054500;28;19909;-23
2022/10/30 08:47:58;;;;;;;;;;;19.20;99.90;;;;;;5054908;28;20374;-23
2022/10/30 08:50:24;;;;;;;;;;;19.20;99.90;;;;;;5055075;28;20409;-23
2022/10/30 08:52:49;;;;;;;;;;;19.20;99.90;;;;;;5052662;28;19992;-23
2022/10/30 08:55:15;;;;;;;;;;;19.30;99.90;;;;;;5054013;28;20311;-23
2022/10/30 08:57:40;;;;;;;;;;;19.30;99.90;;;;;;5054122;28;20020;-23
2022/10/30 09:00:06;;;;;;;;;;;19.30;99.90;;;;;;5054096;28;19917;-23
2022/10/30 09:02:33;;;;;;;;;;;19.30;99.90;;;;;;5053849;28;19956;-23
2022/10/30 09:04:58;;;;;;;;;;;19.40;99.90;;;;;;5054226;28;19909;-23
2022/10/30 09:07:24;;;;;;;;;;;19.40;99.90;;;;;;5053680;28;19928;-23
2022/10/30 09:09:49;;;;;;;;;;;19.40;99.90;;;;;;5054472;28;19919;-23
2022/10/30 09:12:15;;;;;;;;;;;19.40;99.90;;;;;;5054308;28;19913;-23
2022/10/30 09:14:41;;;;;;;;;;;19.50;99.90;;;;;;5052878;28;19909;-23
2022/10/30 09:17:06;;;;;;;;;;;19.40;99.90;;;;;;5053554;28;19913;-24
2022/10/30 09:19:32;;;;;;;;;;;19.50;99.90;;;;;;5053746;28;20282;-24
2022/10/30 09:21:57;;;;;;;;;;;19.50;99.90;;;;;;5054060;28;19965;-24
2022/10/30 09:24:23;;;;;;;;;;;19.50;99.90;;;;;;5053393;28;19940;-23
2022/10/30 09:26:48;;;;;;;;;;;19.60;99.90;;;;;;5053415;28;19952;-23
2022/10/30 09:29:14;;;;;;;;;;;19.60;99.90;;;;;;5053402;28;20477;-23
2022/10/30 09:31:39;;;;;;;;;;;19.60;99.90;;;;;;5053311;28;19908;-23
2022/10/30 09:34:05;;;;;;;;;;;19.60;99.90;;;;;;5053783;28;20435;-23
2022/10/30 09:36:31;;;;;;;;;;;19.60;99.90;;;;;;5053490;28;19919;-23
2022/10/30 09:38:57;;;;;;;;;;;19.70;99.90;;;;;;5053718;28;19961;-23
2022/10/30 09:41:30;;;;;;;;;;;19.70;99.90;;;;;;5053909;28;19952;-23
2022/10/30 09:44:07;;;;;;;;;;;19.70;99.90;;;;;;5055190;28;20348;-24
2022/10/30 09:46:40;;;;;;;;;;;19.70;99.90;;;;;;5055817;28;19952;-24
2022/10/30 09:49:29;;;;;;;;;;;19.80;99.90;;;;;;5054676;28;20121;-24
2022/10/30 09:51:58;;;;;;;;;;;19.80;99.90;;;;;;5053747;28;20275;-23
2022/10/30 09:54:35;;;;;;;;;;;19.80;99.90;;;;;;5052956;28;20046;-23
2022/10/30 09:57:05;;;;;;;;;;;19.80;99.90;;;;;;5053719;28;19916;-24
2022/10/30 09:59:52;;;;;;;;;;;19.90;99.90;;;;;;5053615;28;19959;-24
2022/10/30 10:02:30;;;;;;;;;;;19.90;99.90;;;;;;5054302;28;19923;-24
2022/10/30 10:04:59;;;;;;;;;;;19.90;99.90;;;;;;5052819;28;19968;-23
2022/10/30 10:07:27;;;;;;;;;;;19.90;99.90;;;;;;5053570;28;19915;-24
2022/10/30 10:09:56;;;;;;;;;;;19.90;99.90;;;;;;5052897;28;19919;-24
2022/10/30 10:12:29;;;;;;;;;;;19.90;99.90;;;;;;5052949;28;19913;-23
2022/10/30 10:14:55;;;;;;;;;;;20.00;99.90;;;;;;5052720;28;19916;-23
2022/10/30 10:17:30;;;;;;;;;;;20.00;99.90;;;;;;5052015;28;19915;-23
2022/10/30 10:19:59;;;;;;;;;;;20.00;99.90;;;;;;5051812;28;19919;-24
2022/10/30 10:22:28;;;;;;;;;;;20.00;99.90;;;;;;5051977;28;19913;-23
2022/10/30 10:24:54;;;;;;;;;;;20.00;99.90;;;;;;5053201;28;19921;-24
2022/10/30 10:27:32;;;;;;;;;;;20.00;99.90;;;;;;5051158;28;19909;-23
2022/10/30 10:30:03;;;;;;;;;;;20.10;99.90;;;;;;5068773;28;20004;-23
2022/10/30 10:32:47;;;;;;;;;;;20.10;99.90;;;;;;5050420;28;19913;-23
2022/10/30 10:35:31;;;;;;;;;;;20.10;99.90;;;;;;5053338;28;19909;-23
2022/10/30 10:38:03;;;;;;;;;;;20.10;99.90;;;;;;5052406;28;19923;-23
2022/10/30 10:40:28;;;;;;;;;;;20.20;99.90;;;;;;5053106;28;19932;-24
2022/10/30 10:43:03;;;;;;;;;;;20.20;99.90;;;;;;5051859;28;19919;-23
2022/10/30 10:45:28;;;;;;;;;;;20.20;99.90;;;;;;5052720;28;20370;-24
2022/10/30 10:48:20;;;;;;;;;;;20.20;99.90;;;;;;5052068;28;20196;-23
2022/10/30 10:50:52;;;;;;;;;;;20.30;99.90;;;;;;5050496;28;19912;-23
2022/10/30 10:53:17;;;;;;;;;;;20.30;99.90;;;;;;5052355;28;19916;-23
2022/10/30 10:55:45;;;;;;;;;;;20.30;99.90;;;;;;5051366;28;19909;-24
2022/10/30 10:58:24;;;;;;;;;;;20.40;99.90;;;;;;5052018;28;19913;-23
2022/10/30 11:00:50;;;;;;;;;;;20.40;99.90;;;;;;5052618;28;19955;-23
2022/10/30 11:03:21;;;;;;;;;;;20.40;99.90;;;;;;5051748;28;19960;-23
2022/10/30 11:05:55;;;;;;;;;;;20.40;99.90;;;;;;5052907;28;19924;-24
2022/10/30 11:08:31;;;;;;;;;;;20.40;99.90;;;;;;5051566;28;19913;-23
2022/10/30 11:10:58;;;;;;;;;;;20.40;99.90;;;;;;5051895;28;19916;-24
2022/10/30 11:13:26;;;;;;;;;;;20.40;99.90;;;;;;5051331;28;20318;-23
2022/10/30 11:16:07;;;;;;;;;;;20.40;99.90;;;;;;5051450;28;19916;-23
2022/10/30 11:18:33;;;;;;;;;;;20.40;99.90;;;;;;5051413;28;19909;-23
2022/10/30 11:21:04;;;;;;;;;;;20.40;99.90;;;;;;5051105;28;20297;-24
2022/10/30 11:23:40;;;;;;;;;;;20.40;99.90;;;;;;5051230;28;19913;-23
2022/10/30 11:26:19;;;;;;;;;;;20.50;99.90;;;;;;5051465;28;20361;-23
2022/10/30 11:28:49;;;;;;;;;;;20.40;99.90;;;;;;5051442;28;19931;-23
2022/10/30 11:31:17;;;;;;;;;;;20.50;99.90;;;;;;5051090;28;19916;-23
2022/10/30 11:33:43;;;;;;;;;;;20.40;99.90;;;;;;5050594;28;19920;-23
2022/10/30 11:36:09;;;;;;;;;;;20.50;99.90;;;;;;5051078;28;19909;-23
2022/10/30 11:38:34;;;;;;;;;;;20.40;99.90;;;;;;5050638;28;19916;-24
2022/10/30 11:41:00;;;;;;;;;;;20.40;99.90;;;;;;5049384;28;19923;-23
2022/10/30 11:43:26;;;;;;;;;;;20.30;99.90;;;;;;5051052;28;19931;-23
2022/10/30 11:45:52;;;;;;;;;;;20.30;99.90;;;;;;5050972;28;19912;-23
2022/10/30 11:48:20;;;;;;;;;;;20.30;99.90;;;;;;5050664;28;20401;-23
2022/10/30 11:50:48;;;;;;;;;;;20.20;99.90;;;;;;5050353;28;19919;-23
2022/10/30 11:53:21;;;;;;;;;;;20.20;99.90;;;;;;5050448;28;19920;-23
2022/10/30 11:55:48;;;;;;;;;;;20.10;99.90;;;;;;5051405;28;19919;-23
2022/10/30 11:58:32;;;;;;;;;;;20.10;99.90;;;;;;5051180;28;19913;-23
2022/10/30 12:01:03;;;;;;;;;;;20.10;99.90;;;;;;5050775;28;20504;-23
2022/10/30 12:03:39;;;;;;;;;;;20.10;99.90;;;;;;5050464;28;19988;-24
2022/10/30 12:06:09;;;;;;;;;;;20.10;99.90;;;;;;5052751;28;19939;-23
2022/10/30 12:08:34;;;;;;;;;;;20.00;99.90;;;;;;5054687;28;19913;-23
2022/10/30 12:11:01;;;;;;;;;;;20.00;99.90;;;;;;5055027;28;19916;-24
2022/10/30 12:13:31;;;;;;;;;;;20.00;99.90;;;;;;5054512;28;19971;-23
2022/10/30 12:16:23;;;;;;;;;;;20.00;99.90;;;;;;5054769;28;19916;-23
2022/10/30 12:19:06;;;;;;;;;;;20.00;99.90;;;;;;5053815;28;19909;-23
2022/10/30 12:21:36;;;;;;;;;;;20.00;99.90;;;;;;5055157;28;19966;-23
2022/10/30 12:24:05;;;;;;;;;;;20.00;99.90;;;;;;5055017;28;19913;-24
2022/10/30 12:26:32;;;;;;;;;;;20.00;99.90;;;;;;5054379;28;20314;-23
2022/10/30 12:28:59;;;;;;;;;;;20.00;99.90;;;;;;5055051;28;19912;-23
2022/10/30 12:31:29;;;;;;;;;;;20.00;99.90;;;;;;5055011;28;19909;-23
2022/10/30 12:34:02;;;;;;;;;;;20.00;99.90;;;;;;5054430;28;19909;-23
2022/10/30 12:36:32;;;;;;;;;;;20.00;99.90;;;;;;5054584;28;19916;-23
2022/10/30 12:39:01;;;;;;;;;;;20.00;99.90;;;;;;5054539;28;19912;-23
2022/10/30 12:41:30;;;;;;;;;;;20.00;99.90;;;;;;5054505;28;19935;-23
2022/10/30 12:44:02;;;;;;;;;;;20.00;99.90;;;;;;5054486;28;19990;-23
2022/10/30 12:46:47;;;;;;;;;;;20.00;99.90;;;;;;5054243;28;19963;-23
2022/10/30 12:49:19;;;;;;;;;;;20.00;99.90;;;;;;5054711;28;20348;-23
2022/10/30 12:51:44;;;;;;;;;;;20.00;99.90;;;;;;5054675;28;19912;-24
2022/10/30 12:54:28;;;;;;;;;;;20.00;99.90;;;;;;5054107;28;20004;-23
2022/10/30 12:57:23;;;;;;;;;;;20.00;99.90;;;;;;5054138;28;19958;-23
2022/10/30 12:59:48;;;;;;;;;;;20.00;99.90;;;;;;5049376;28;19928;-23
2022/10/30 13:02:40;;;;;;;;;;;20.00;99.90;;;;;;5069733;28;20023;-23
2022/10/30 13:05:26;;;;;;;;;;;20.00;99.90;;;;;;5046068;28;19920;-23
2022/10/30 13:08:11;;;;;;;;;;;20.00;99.90;;;;;;5053320;28;19978;-23
2022/10/30 13:10:42;;;;;;;;;;;20.00;99.90;;;;;;5053777;28;19917;-23
2022/10/30 13:13:27;;;;;;;;;;;20.00;99.90;;;;;;5053023;28;19971;-23
2022/10/30 13:15:54;;;;;;;;;;;20.00;99.90;;;;;;5052698;28;20282;-23
2022/10/30 13:18:21;;;;;;;;;;;20.00;99.90;;;;;;5052791;28;19909;-23
2022/10/30 13:21:07;;;;;;;;;;;20.00;99.90;;;;;;5053646;28;20022;-23
2022/10/30 13:23:47;;;;;;;;;;;20.00;99.90;;;;;;5049041;28;19916;-23
2022/10/30 13:26:20;;;;;;;;;;;20.00;99.90;;;;;;5053701;28;19908;-23
2022/10/30 13:28:50;;;;;;;;;;;20.00;99.90;;;;;;5053923;28;19920;-23
2022/10/30 13:31:25;;;;;;;;;;;20.00;99.90;;;;;;5053974;28;19912;-23
2022/10/30 13:33:55;;;;;;;;;;;20.00;99.90;;;;;;5052988;28;19970;-23
2022/10/30 13:36:31;;;;;;;;;;;20.00;99.90;;;;;;5053233;28;19909;-24
2022/10/30 13:39:09;;;;;;;;;;;20.00;99.90;;;;;;5052603;28;19919;-23
2022/10/30 13:41:41;;;;;;;;;;;20.00;99.90;;;;;;5053549;28;19917;-23
2022/10/30 13:44:17;;;;;;;;;;;20.00;99.90;;;;;;5052858;28;19916;-23
2022/10/30 13:46:51;;;;;;;;;;;20.00;99.90;;;;;;5053029;28;19913;-23
2022/10/30 13:49:20;;;;;;;;;;;20.00;99.90;;;;;;5053671;28;20046;-23
2022/10/30 13:52:01;;;;;;;;;;;20.10;99.90;;;;;;5054042;28;20030;-23
2022/10/30 13:54:30;;;;;;;;;;;20.00;99.90;;;;;;5052825;28;20344;-24
2022/10/30 13:57:00;;;;;;;;;;;20.10;99.90;;;;;;5053189;28;19939;-23
2022/10/30 13:59:25;;;;;;;;;;;20.00;99.90;;;;;;5052839;28;20446;-23
2022/10/30 14:01:59;;;;;;;;;;;20.10;99.90;;;;;;5052819;28;19948;-23
2022/10/30 14:04:32;;;;;;;;;;;20.10;99.90;;;;;;5052288;28;19908;-23
2022/10/30 14:06:58;;;;;;;;;;;20.10;99.90;;;;;;5053310;28;19909;-23
2022/10/30 14:09:23;;;;;;;;;;;20.10;99.90;;;;;;5052372;28;19913;-23
2022/10/30 14:11:51;;;;;;;;;;;20.10;99.90;;;;;;5052501;28;19909;-23
2022/10/30 14:14:23;;;;;;;;;;;20.10;99.90;;;;;;5051946;28;19921;-23
2022/10/30 14:17:07;;;;;;;;;;;20.10;99.90;;;;;;5053185;28;19909;-23
2022/10/30 14:19:52;;;;;;;;;;;20.10;99.90;;;;;;5052956;28;19934;-23
2022/10/30 14:22:22;;;;;;;;;;;20.10;99.90;;;;;;5052252;28;20397;-23